createdAt,value
2018-12-06T05:41:10.620Z,97352.53
2018-12-06T05:43:40.003Z,97352.43
2018-12-06T05:46:10.148Z,97348.87
2018-12-06T05:48:39.511Z,97349.89
2018-12-06T05:51:08.800Z,97364.33
2018-12-06T05:53:38.124Z,97368.00
2018-12-06T05:56:08.412Z,97373.97
2018-12-06T05:58:37.701Z,97381.13
2018-12-06T06:01:06.971Z,97388.84
2018-12-06T06:03:37.147Z,97375.83
2018-12-06T06:06:06.527Z,97386.16
2018-12-06T06:08:35.805Z,97383.61
2018-12-06T06:11:05.170Z,97384.88
2018-12-06T06:13:34.501Z,97369.27
2018-12-06T06:19:01.816Z,97382.48
2018-12-06T06:21:31.491Z,97388.20
2018-12-06T06:24:00.778Z,97394.77
2018-12-06T06:26:30.409Z,97396.44
2018-12-06T06:28:59.772Z,97404.55
2018-12-06T06:31:29.224Z,97400.45
2018-12-06T06:33:58.598Z,97413.86
2018-12-06T06:36:27.859Z,97410.19
2018-12-06T06:38:57.146Z,97414.05
2018-12-06T06:41:26.552Z,97425.13
2018-12-06T06:43:55.903Z,97420.95
2018-12-06T06:46:25.182Z,97415.86
2018-12-06T06:48:54.607Z,97399.66
2018-12-06T06:51:23.951Z,97404.20
2018-12-06T06:53:53.257Z,97408.22
2018-12-06T06:56:22.484Z,97394.22
2018-12-06T06:58:51.831Z,97394.70
2018-12-06T07:01:21.220Z,97395.98
2018-12-06T07:03:50.446Z,97389.61
2018-12-06T07:06:19.778Z,97386.19
2018-12-06T07:08:49.116Z,97386.23
2018-12-06T07:11:18.438Z,97390.54
2018-12-06T07:13:47.653Z,97401.86
2018-12-06T07:16:17.023Z,97403.27
2018-12-06T07:18:46.229Z,97402.24
2018-12-06T07:21:15.602Z,97394.66
2018-12-06T07:23:44.940Z,97392.19
2018-12-06T07:26:14.259Z,97391.98
2018-12-06T07:28:43.567Z,97395.27
2018-12-06T07:31:12.872Z,97399.54
2018-12-06T07:33:42.078Z,97411.67
2018-12-06T07:36:11.303Z,97412.09
2018-12-06T07:38:40.597Z,97410.32
2018-12-06T07:44:10.747Z,97423.56
2018-12-06T07:46:40.546Z,97429.33
2018-12-06T07:49:09.935Z,97430.36
2018-12-06T07:51:39.244Z,97440.81
2018-12-06T07:54:08.650Z,97437.22
2018-12-06T07:56:37.856Z,97444.36
2018-12-06T07:59:07.844Z,97448.27
2018-12-06T08:01:37.168Z,97445.41
2018-12-06T08:04:06.569Z,97446.69
2018-12-06T08:06:35.924Z,97451.05
2018-12-06T08:09:09.382Z,97455.45
2018-12-06T08:11:38.798Z,97452.28
2018-12-06T08:14:08.398Z,97450.96
2018-12-06T08:16:37.797Z,97461.16
2018-12-06T08:19:07.263Z,97458.48
2018-12-06T08:21:36.602Z,97457.78
2018-12-06T08:24:05.902Z,97472.39
2018-12-06T08:26:35.246Z,97477.67
2018-12-06T08:29:04.767Z,97469.66
2018-12-06T08:31:34.138Z,97476.30
2018-12-06T08:34:06.340Z,97478.77
2018-12-06T08:36:34.678Z,97473.97
2018-12-06T08:39:04.877Z,97478.89
2018-12-06T08:41:34.146Z,97478.72
2018-12-06T08:44:03.563Z,97476.91
2018-12-06T08:46:32.802Z,97482.33
2018-12-06T08:49:03.119Z,97485.00
2018-12-06T08:51:32.668Z,97476.99
2018-12-06T08:54:01.904Z,97485.45
2018-12-06T08:56:31.207Z,97475.72
2018-12-06T08:59:01.214Z,97474.53
2018-12-06T09:01:30.517Z,97480.47
2018-12-06T09:03:59.843Z,97487.42
2018-12-06T09:06:29.095Z,97496.13
2018-12-06T09:08:58.438Z,97497.45
2018-12-06T09:11:27.830Z,97498.73
2018-12-06T09:13:57.066Z,97493.80
2018-12-06T09:16:26.300Z,97491.73
2018-12-06T09:18:55.544Z,97502.39
2018-12-06T09:21:24.774Z,97498.16
2018-12-06T09:23:54.038Z,97507.05
2018-12-06T09:26:24.369Z,97510.22
2018-12-06T09:28:54.063Z,97514.22
2018-12-06T09:31:23.318Z,97521.83
2018-12-06T09:34:06.151Z,97525.36
2018-12-06T09:36:36.195Z,97520.06
2018-12-06T09:39:09.779Z,97519.92
2018-12-06T09:41:39.026Z,97514.31
2018-12-06T09:44:08.507Z,97521.87
2018-12-06T09:46:37.798Z,97519.14
2018-12-06T09:49:07.551Z,97514.44
2018-12-06T09:51:36.877Z,97518.71
2018-12-06T09:54:06.290Z,97510.89
2018-12-06T09:56:35.639Z,97503.80
2018-12-06T09:59:05.028Z,97510.58
2018-12-06T10:01:34.273Z,97519.71
2018-12-06T10:04:03.606Z,97516.64
2018-12-06T10:06:33.258Z,97534.56
2018-12-06T10:09:02.478Z,97536.33
2018-12-06T10:11:32.103Z,97536.04
2018-12-06T10:14:01.446Z,97539.52
2018-12-06T10:16:30.777Z,97541.27
2018-12-06T10:19:01.090Z,97545.27
2018-12-06T10:21:30.391Z,97547.64
2018-12-06T10:24:00.211Z,97546.58
2018-12-06T10:26:29.473Z,97532.77
2018-12-06T10:28:59.024Z,97529.27
2018-12-06T10:31:28.345Z,97532.51
2018-12-06T10:33:57.526Z,97534.42
2018-12-06T10:36:26.735Z,97534.03
2018-12-06T10:38:56.027Z,97524.84
2018-12-06T10:41:25.231Z,97520.38
2018-12-06T10:43:54.546Z,97520.38
2018-12-06T10:46:23.890Z,97526.73
2018-12-06T10:48:53.445Z,97535.67
2018-12-06T10:51:41.587Z,97524.69
2018-12-06T10:54:11.070Z,97518.82
2018-12-06T10:56:40.315Z,97513.73
2018-12-06T10:59:09.542Z,97521.92
2018-12-06T11:01:44.136Z,97519.45
2018-12-06T11:04:13.353Z,97520.77
2018-12-06T11:06:42.663Z,97525.04
2018-12-06T11:09:11.984Z,97529.11
2018-12-06T11:11:41.274Z,97531.74
2018-12-06T11:14:10.745Z,97541.05
2018-12-06T11:16:40.116Z,97537.58
2018-12-06T11:19:09.446Z,97534.55
2018-12-06T11:21:38.702Z,97526.40
2018-12-06T11:24:07.945Z,97526.88
2018-12-06T11:26:37.174Z,97521.88
2018-12-06T11:29:06.414Z,97516.23
2018-12-06T11:31:35.641Z,97503.69
2018-12-06T11:34:05.118Z,97503.36
2018-12-06T11:36:34.486Z,97494.78
2018-12-06T11:39:05.387Z,97496.28
2018-12-06T11:41:34.694Z,97477.33
2018-12-06T11:44:04.097Z,97476.66
2018-12-06T11:46:33.306Z,97481.55
2018-12-06T11:49:02.546Z,97480.98
2018-12-06T11:51:31.868Z,97486.09
2018-12-06T11:54:01.066Z,97482.05
2018-12-06T11:56:30.275Z,97470.97
2018-12-06T11:58:59.495Z,97466.42
2018-12-06T12:01:28.790Z,97476.30
2018-12-06T12:03:58.018Z,97479.56
2018-12-06T12:06:27.338Z,97474.11
2018-12-06T12:08:56.551Z,97469.89
2018-12-06T12:11:25.779Z,97461.40
2018-12-06T12:13:55.064Z,97471.07
2018-12-06T12:16:24.283Z,97470.63
2018-12-06T12:18:53.514Z,97466.32
2018-12-06T12:21:22.759Z,97450.58
2018-12-06T12:23:51.970Z,97463.05
2018-12-06T12:26:21.390Z,97466.05
2018-12-06T12:28:50.587Z,97469.19
2018-12-06T12:31:20.066Z,97482.56
2018-12-06T12:33:49.274Z,97477.27
2018-12-06T12:36:18.482Z,97482.80
2018-12-06T12:38:47.785Z,97479.63
2018-12-06T12:41:17.208Z,97478.04
2018-12-06T12:43:46.425Z,97480.44
2018-12-06T12:46:17.062Z,97477.60
2018-12-06T12:48:46.432Z,97476.86
2018-12-06T12:51:15.861Z,97476.48
2018-12-06T12:53:45.092Z,97479.14
2018-12-06T12:56:14.302Z,97475.87
2018-12-06T12:58:43.622Z,97470.53
2018-12-06T13:01:12.855Z,97476.13
2018-12-06T13:03:42.117Z,97468.28
2018-12-06T13:06:11.447Z,97472.59
2018-12-06T13:08:40.674Z,97473.20
2018-12-06T13:11:09.948Z,97473.09
2018-12-06T13:13:39.211Z,97466.58
2018-12-06T13:16:08.460Z,97467.43
2018-12-06T13:18:37.710Z,97469.33
2018-12-06T13:21:07.156Z,97470.67
2018-12-06T13:23:36.654Z,97469.10
2018-12-06T13:26:06.128Z,97473.86
2018-12-06T13:28:35.483Z,97478.17
2018-12-06T13:31:04.924Z,97479.45
2018-12-06T13:33:34.466Z,97479.08
2018-12-06T13:36:06.593Z,97481.67
2018-12-06T13:38:35.950Z,97477.06
2018-12-06T13:41:05.528Z,97473.72
2018-12-06T13:43:34.049Z,97482.88
2018-12-06T13:46:03.517Z,97478.96
2018-12-06T13:48:32.840Z,97479.55
2018-12-06T13:51:02.143Z,97478.70
2018-12-06T13:53:31.408Z,97481.73
2018-12-06T13:56:00.642Z,97475.16
2018-12-06T14:01:23.533Z,97484.67
2018-12-06T14:03:53.185Z,97482.57
2018-12-06T14:06:22.610Z,97485.55
2018-12-06T14:08:51.923Z,97484.29
2018-12-06T14:11:21.163Z,97486.04
2018-12-06T14:13:50.433Z,97487.33
2018-12-06T14:16:19.803Z,97491.17
2018-12-06T14:18:50.843Z,97488.58
2018-12-06T14:21:20.108Z,97491.98
2018-12-06T14:23:49.320Z,97477.47
2018-12-06T14:26:18.554Z,97478.25
2018-12-06T14:28:47.776Z,97484.23
2018-12-06T14:31:17.017Z,97487.23
2018-12-06T14:33:46.415Z,97489.75
2018-12-06T14:36:15.642Z,97493.59
2018-12-06T14:38:45.006Z,97483.66
2018-12-06T14:41:14.222Z,97486.25
2018-12-06T14:43:43.571Z,97488.47
2018-12-06T14:46:12.872Z,97494.50
2018-12-06T14:48:42.103Z,97490.30
2018-12-06T14:51:11.478Z,97498.49
2018-12-06T14:53:40.819Z,97498.11
2018-12-06T14:56:10.038Z,97505.05
2018-12-06T14:58:39.293Z,97511.47
2018-12-06T15:01:08.731Z,97513.66
2018-12-06T15:03:38.048Z,97520.92
2018-12-06T15:06:07.385Z,97523.89
2018-12-06T15:08:36.618Z,97529.44
2018-12-06T15:11:05.823Z,97532.86
2018-12-06T15:13:35.893Z,97535.73
2018-12-06T15:16:05.458Z,97530.66
2018-12-06T15:18:34.687Z,97538.42
2018-12-06T15:21:04.219Z,97530.78
2018-12-06T15:23:33.555Z,97533.84
2018-12-06T15:26:02.869Z,97534.25
2018-12-06T15:28:32.185Z,97529.99
2018-12-06T15:31:01.498Z,97535.79
2018-12-06T15:33:30.832Z,97531.62
2018-12-06T15:36:00.061Z,97532.45
2018-12-06T15:38:30.339Z,97541.51
2018-12-06T15:40:59.648Z,97532.27
2018-12-06T15:43:28.995Z,97532.85
2018-12-06T15:45:58.355Z,97527.33
2018-12-06T15:48:27.669Z,97526.42
2018-12-06T15:50:56.882Z,97524.77
2018-12-06T15:53:26.184Z,97528.70
2018-12-06T15:55:55.460Z,97531.67
2018-12-06T15:58:24.691Z,97535.17
2018-12-06T16:00:53.994Z,97546.05
2018-12-06T16:03:23.306Z,97539.54
2018-12-06T16:05:52.609Z,97552.38
2018-12-06T16:08:22.124Z,97542.48
2018-12-06T16:10:51.414Z,97535.66
2018-12-06T16:13:21.147Z,97533.12
2018-12-06T16:15:50.970Z,97527.62
2018-12-06T16:18:20.354Z,97528.91
2018-12-06T16:20:49.559Z,97529.23
2018-12-06T16:23:18.883Z,97524.77
2018-12-06T16:25:48.198Z,97532.85
2018-12-06T16:28:17.415Z,97544.44
2018-12-06T16:30:46.841Z,97544.73
2018-12-06T16:33:16.165Z,97545.11
2018-12-06T16:35:46.978Z,97549.55
2018-12-06T16:38:16.340Z,97550.34
2018-12-06T16:40:46.354Z,97551.70
2018-12-06T16:43:15.633Z,97553.28
2018-12-06T16:45:45.302Z,97564.88
2018-12-06T16:48:14.567Z,97565.66
2018-12-06T16:50:43.831Z,97556.73
2018-12-06T16:53:14.257Z,97546.59
2018-12-06T16:58:40.907Z,97552.69
2018-12-06T17:01:10.222Z,97557.81
2018-12-06T17:03:39.560Z,97552.25
2018-12-06T17:06:09.601Z,97547.44
2018-12-06T17:08:38.843Z,97551.69
2018-12-06T17:11:08.071Z,97557.14
2018-12-06T17:13:37.418Z,97556.30
2018-12-06T17:16:06.817Z,97559.05
2018-12-06T17:18:36.118Z,97560.01
2018-12-06T17:21:05.445Z,97559.42
2018-12-06T17:23:34.715Z,97557.18
2018-12-06T17:26:04.130Z,97569.23
2018-12-06T17:28:34.181Z,97576.11
2018-12-06T17:31:03.383Z,97583.52
2018-12-06T17:33:32.617Z,97581.02
2018-12-06T17:36:01.838Z,97574.59
2018-12-06T17:38:31.630Z,97579.15
2018-12-06T17:41:00.921Z,97579.94
2018-12-06T17:43:30.149Z,97587.14
2018-12-06T17:45:59.404Z,97598.58
2018-12-06T17:48:28.726Z,97594.17
2018-12-06T17:50:57.945Z,97584.98
2018-12-06T17:53:27.299Z,97591.70
2018-12-06T17:55:57.304Z,97589.27
2018-12-06T17:58:29.170Z,97587.22
2018-12-06T18:00:58.488Z,97596.41
2018-12-06T18:03:27.782Z,97590.98
2018-12-06T18:05:57.039Z,97596.14
2018-12-06T18:08:27.071Z,97603.17
2018-12-06T18:10:56.414Z,97596.83
2018-12-06T18:13:25.810Z,97615.63
2018-12-06T18:15:55.313Z,97617.77
2018-12-06T18:18:24.644Z,97608.77
2018-12-06T18:20:54.022Z,97607.05
2018-12-06T18:23:23.323Z,97603.25
2018-12-06T18:25:52.562Z,97600.24
2018-12-06T18:28:21.798Z,97602.27
2018-12-06T18:30:51.114Z,97604.14
2018-12-06T18:33:20.326Z,97595.83
2018-12-06T18:35:49.550Z,97602.61
2018-12-06T18:38:18.777Z,97602.11
2018-12-06T18:40:47.979Z,97608.15
2018-12-06T18:43:17.655Z,97604.24
2018-12-06T18:45:47.130Z,97592.22
2018-12-06T18:48:16.417Z,97598.73
2018-12-06T18:50:45.728Z,97601.23
2018-12-06T18:53:14.979Z,97595.69
2018-12-06T18:55:44.318Z,97594.27
2018-12-06T18:58:13.523Z,97600.69
2018-12-06T19:00:42.810Z,97596.83
2018-12-06T19:03:12.451Z,97599.78
2018-12-06T19:05:41.821Z,97605.70
2018-12-06T19:08:11.179Z,97606.08
2018-12-06T19:10:40.843Z,97603.02
2018-12-06T19:13:10.258Z,97593.13
2018-12-06T19:15:39.763Z,97591.75
2018-12-06T19:18:09.373Z,97597.12
2018-12-06T19:20:38.634Z,97592.08
2018-12-06T19:23:08.026Z,97591.17
2018-12-06T19:25:37.378Z,97593.50
2018-12-06T19:28:06.927Z,97595.02
2018-12-06T19:30:37.455Z,97593.76
2018-12-06T19:33:06.981Z,97591.25
2018-12-06T19:35:38.683Z,97588.19
2018-12-06T19:38:08.109Z,97587.17
2018-12-06T19:40:37.833Z,97581.48
2018-12-06T19:43:07.111Z,97588.28
2018-12-06T19:45:36.659Z,97586.61
2018-12-06T19:48:06.107Z,97582.84
2018-12-06T19:50:35.340Z,97579.60
2018-12-06T19:53:05.099Z,97582.17
2018-12-06T19:55:34.345Z,97584.22
2018-12-06T19:58:03.864Z,97577.41
2018-12-06T20:00:33.534Z,97576.52
2018-12-06T20:03:03.855Z,97582.98
2018-12-06T20:05:33.148Z,97586.52
2018-12-06T20:08:02.638Z,97585.64
2018-12-06T20:10:31.952Z,97582.20
2018-12-06T20:13:01.598Z,97588.30
2018-12-06T20:15:31.072Z,97590.48
2018-12-06T20:18:00.464Z,97589.69
2018-12-06T20:20:29.906Z,97590.13
2018-12-06T20:22:59.178Z,97584.58
2018-12-06T20:25:28.606Z,97588.05
2018-12-06T20:27:57.864Z,97585.10
2018-12-06T20:30:27.332Z,97584.09
2018-12-06T20:32:56.611Z,97571.98
2018-12-06T20:35:25.922Z,97568.64
2018-12-06T20:37:55.694Z,97566.62
2018-12-06T20:40:25.242Z,97569.71
2018-12-06T20:42:54.540Z,97565.97
2018-12-06T20:45:23.859Z,97569.05
2018-12-06T20:47:53.190Z,97571.35
2018-12-06T20:50:22.617Z,97563.27
2018-12-06T20:52:51.909Z,97562.83
2018-12-06T20:55:21.882Z,97562.03
2018-12-06T20:57:51.102Z,97555.91
2018-12-06T21:00:20.378Z,97554.05
2018-12-06T21:02:49.690Z,97555.72
2018-12-06T21:05:18.962Z,97553.09
2018-12-06T21:07:48.288Z,97553.91
2018-12-06T21:10:17.554Z,97552.38
2018-12-06T21:12:46.823Z,97546.37
2018-12-06T21:15:16.231Z,97541.67
2018-12-06T21:17:45.530Z,97540.77
2018-12-06T21:20:14.870Z,97533.02
2018-12-06T21:22:44.198Z,97531.78
2018-12-06T21:25:16.581Z,97530.87
2018-12-06T21:27:45.962Z,97536.91
2018-12-06T21:30:15.226Z,97529.59
2018-12-06T21:32:44.562Z,97538.15
2018-12-06T21:35:13.862Z,97536.75
2018-12-06T21:37:43.102Z,97539.75
2018-12-06T21:40:12.426Z,97537.13
2018-12-06T21:42:41.781Z,97536.47
2018-12-06T21:45:11.189Z,97542.45
2018-12-06T21:47:40.434Z,97538.63
2018-12-06T21:50:10.280Z,97532.61
2018-12-06T21:52:39.603Z,97532.50
2018-12-06T21:55:08.948Z,97543.27
2018-12-06T21:57:38.319Z,97538.59
2018-12-06T22:00:08.424Z,97539.41
2018-12-06T22:02:37.805Z,97534.25
2018-12-06T22:05:07.529Z,97543.30
2018-12-06T22:07:37.023Z,97537.86
2018-12-06T22:10:07.889Z,97545.92
2018-12-06T22:12:37.152Z,97542.88
2018-12-06T22:15:06.665Z,97539.03
2018-12-06T22:17:36.006Z,97543.73
2018-12-06T22:20:05.989Z,97534.28
2018-12-06T22:22:35.216Z,97534.28
2018-12-06T22:25:04.941Z,97533.88
2018-12-06T22:27:34.177Z,97531.56
2018-12-06T22:30:03.688Z,97539.94
2018-12-06T22:32:32.921Z,97533.58
2018-12-06T22:35:02.150Z,97531.30
2018-12-06T22:37:31.478Z,97541.51
2018-12-06T22:40:00.715Z,97530.34
2018-12-06T22:42:29.931Z,97527.21
2018-12-06T22:45:20.117Z,97532.28
2018-12-06T22:47:49.618Z,97534.78
2018-12-06T22:50:18.837Z,97539.41
2018-12-06T22:52:48.049Z,97530.50
2018-12-06T22:55:17.292Z,97533.25
2018-12-06T22:57:46.558Z,97530.34
2018-12-06T23:00:16.614Z,97525.27
2018-12-06T23:02:45.899Z,97524.57
2018-12-06T23:05:15.122Z,97518.66
2018-12-06T23:07:44.514Z,97520.55
2018-12-06T23:10:13.816Z,97521.39
2018-12-06T23:12:43.114Z,97513.89
2018-12-06T23:15:12.436Z,97517.45
2018-12-06T23:17:41.823Z,97502.05
2018-12-06T23:20:11.182Z,97508.11
2018-12-06T23:22:40.526Z,97500.93
2018-12-06T23:25:09.771Z,97501.10
2018-12-06T23:27:39.333Z,97497.34
2018-12-06T23:30:08.786Z,97489.27
2018-12-06T23:32:38.103Z,97488.09
2018-12-06T23:35:07.411Z,97490.25
2018-12-06T23:37:36.634Z,97486.02
2018-12-06T23:40:06.178Z,97488.23
2018-12-06T23:42:35.494Z,97492.19
2018-12-06T23:45:05.347Z,97493.63
2018-12-06T23:47:34.580Z,97494.53
2018-12-06T23:50:04.151Z,97495.05
2018-12-06T23:52:33.570Z,97495.95
2018-12-06T23:55:02.806Z,97494.79
2018-12-06T23:57:32.293Z,97489.23
